Fulton, CA (95439)

12:20 AM PDT on March 28, 2017 (GMT -0700)
Larkfield - Saddlebrook | | Change Station

Elev 151 ft 38.51 °N, 122.76 °W | Updated 13 seconds ago

Clear
Clear
47.1 °F
Feels Like 47 °F
N
0.0
Wind Variable Wind from ESE

Today
High -- | Low -- °F
--% Chance of Precip.
Yesterday
High -- | Low -- °F
Precip. -- in
Pressure 30.24 in
Visibility 10.0 miles
Clouds Clear
Windchill 47 °F
Dew Point 43 °F
Humidity 88%
Rainfall 0.00 in
Snow Depth Not available.
7:01 AM 7:31 PM
New Moon, 0% visible
METAR KSTS 280653Z AUTO 01005KT 10SM CLR 09/06 A3025 RMK AO2 SLP239 T00890061
Pressure 30.24 in
Visibility 10.0 miles
Clouds Clear
Windchill 47 °F
Dew Point 43 °F
Humidity 88%
Rainfall 0.00 in
Snow Depth Not available.
7:01 AM 7:31 PM
New Moon, 0% visible
METAR KSTS 280653Z AUTO 01005KT 10SM CLR 09/06 A3025 RMK AO2 SLP239 T00890061

Get Severe Weather Alerts

Thanks for signing up!

Be on the lookout for a verification email in your inbox.

You'll start receiving the daily forecast at 8 AM.

×

10-Day Weather Forecast

Almanac

Astronomy

Mar. 28, 2017 Rise Set
Actual Time
Civil Twilight
Nautical Twilight
Astronomical Twilight
Moon
Length of Visible Light
Length of Day
Tomorrow will be .
, % of the Moon is Illuminated

Today's Extremes

State Highs State Lows

Community

WunderPhotos

Upload Photos

1,962,540 photos uploaded!

WunderBlog® & News

Nearby

Air Quality

  Air Quality AQ Index Pollutant
Not available.

Snow Depth

Station Depth Elevation

Earthquake Activity

City Distance Mag. Time & Date
Minimum magnitude displayed is 2.5.

Earthquake Activity

City Distance Mag. Time & Date
Minimum magnitude displayed is 2.5.

Coastal Water Temperatures

Place Temperature

Stations

Nearby Weather Stations

Station Location Temp. Windchill Dew Point Humidity Wind Precip. Elev Updated Type
                   

Watches & Warnings

There are currently no watches in effect.